TimeCDT,TemperatureF,Dew PointF,Humidity,Sea Level PressureIn,VisibilityMPH,Wind Direction,Wind SpeedMPH,Gust SpeedMPH,PrecipitationIn,Events,Conditions,WindDirDegrees,DateUTC
12:53 AM,73.0,68.0,84,29.95,10.0,South,5.8,-,N/A,,Scattered Clouds,170,2013-10-16 05:53:00
1:53 AM,72.0,69.1,91,29.95,10.0,South,3.5,-,N/A,,Mostly Cloudy,170,2013-10-16 06:53:00
2:53 AM,73.0,69.1,87,29.94,10.0,South,6.9,-,N/A,,Overcast,180,2013-10-16 07:53:00
3:53 AM,73.0,69.1,87,29.94,10.0,South,6.9,-,N/A,,Overcast,190,2013-10-16 08:53:00
4:53 AM,73.0,70.0,90,29.94,10.0,South,4.6,-,N/A,,Overcast,190,2013-10-16 09:53:00
5:53 AM,73.0,70.0,90,29.95,10.0,SSW,3.5,-,N/A,,Overcast,200,2013-10-16 10:53:00
6:05 AM,73.4,69.8,88,29.94,10.0,SSW,3.5,-,N/A,,Overcast,200,2013-10-16 11:05:00
6:53 AM,71.1,68.0,90,29.97,10.0,NW,5.8,-,0.00,,Overcast,310,2013-10-16 11:53:00
7:24 AM,69.8,68.0,94,29.96,2.5,NW,3.5,-,0.07,Rain,Heavy Rain,320,2013-10-16 12:24:00
7:32 AM,69.8,68.0,94,29.96,6.0,Calm,Calm,-,0.07,Rain,Rain,0,2013-10-16 12:32:00
7:53 AM,69.1,68.0,96,29.98,9.0,Calm,Calm,-,0.07,Rain,Light Rain,0,2013-10-16 12:53:00
8:53 AM,70.0,68.0,93,30.00,9.0,West,3.5,-,0.01,Rain,Light Rain,270,2013-10-16 13:53:00
8:58 AM,69.8,69.8,100,29.98,2.0,Calm,Calm,-,0.02,Rain,Heavy Rain,0,2013-10-16 13:58:00
9:05 AM,69.8,69.8,100,29.99,1.0,WNW,4.6,-,0.09,Rain,Heavy Rain,300,2013-10-16 14:05:00
9:20 AM,69.8,69.8,100,29.99,3.0,Calm,Calm,-,0.13,Rain,Light Rain,0,2013-10-16 14:20:00
9:37 AM,69.8,68.0,94,29.99,1.8,NW,3.5,-,0.18,Rain,Rain,320,2013-10-16 14:37:00
9:48 AM,69.8,69.8,100,29.99,3.0,Calm,Calm,-,0.19,Rain,Light Rain,0,2013-10-16 14:48:00
9:53 AM,70.0,69.1,97,30.01,7.0,Calm,Calm,-,0.19,Rain,Light Rain,0,2013-10-16 14:53:00
10:03 AM,69.8,69.8,100,29.99,10.0,Calm,Calm,-,0.00,,Overcast,0,2013-10-16 15:03:00
10:21 AM,71.6,69.8,94,29.99,10.0,Calm,Calm,-,0.00,,Overcast,0,2013-10-16 15:21:00
10:53 AM,71.1,69.1,93,30.01,10.0,North,3.5,-,0.00,,Overcast,10,2013-10-16 15:53:00
11:53 AM,72.0,69.1,91,30.00,10.0,North,5.8,-,N/A,,Overcast,350,2013-10-16 16:53:00
12:41 PM,71.6,68.0,88,29.97,10.0,North,5.8,-,N/A,,Overcast,10,2013-10-16 17:41:00
12:53 PM,73.0,69.1,87,29.99,10.0,NNE,4.6,-,N/A,,Overcast,30,2013-10-16 17:53:00
1:09 PM,73.4,69.8,88,29.95,10.0,East,4.6,-,N/A,,Mostly Cloudy,80,2013-10-16 18:09:00
1:42 PM,75.2,69.8,83,29.94,10.0,North,5.8,-,N/A,,Overcast,10,2013-10-16 18:42:00
1:53 PM,73.0,69.1,87,29.95,10.0,North,5.8,-,N/A,,Overcast,350,2013-10-16 18:53:00
2:14 PM,73.4,69.8,88,29.93,10.0,North,5.8,-,N/A,,Overcast,360,2013-10-16 19:14:00
2:53 PM,73.0,69.1,87,29.95,10.0,NNW,5.8,-,N/A,,Overcast,330,2013-10-16 19:53:00
3:02 PM,66.2,64.4,94,29.94,10.0,NW,11.5,18.4,0.00,Rain,Light Rain,310,2013-10-16 20:02:00
3:19 PM,66.2,64.4,94,29.94,10.0,North,15.0,19.6,0.00,Rain,Light Rain,360,2013-10-16 20:19:00
3:53 PM,64.0,62.1,93,29.97,10.0,NNE,11.5,-,0.00,,Overcast,20,2013-10-16 20:53:00
4:53 PM,62.1,61.0,96,29.97,10.0,North,9.2,-,0.01,Rain,Light Rain,10,2013-10-16 21:53:00
5:53 PM,63.0,61.0,93,29.97,10.0,NNE,6.9,-,0.00,,Overcast,20,2013-10-16 22:53:00
6:53 PM,63.0,61.0,93,29.99,10.0,North,6.9,-,N/A,,Overcast,10,2013-10-16 23:53:00
7:53 PM,63.0,61.0,93,30.00,10.0,NNE,8.1,-,N/A,,Overcast,20,2013-10-17 00:53:00
8:53 PM,63.0,60.1,90,30.01,10.0,NNE,4.6,-,0.00,Rain,Light Rain,20,2013-10-17 01:53:00
9:53 PM,63.0,60.1,90,30.01,10.0,NNE,9.2,-,0.00,,Overcast,20,2013-10-17 02:53:00
10:53 PM,63.0,60.1,90,30.01,10.0,NNE,6.9,-,N/A,,Overcast,20,2013-10-17 03:53:00
11:08 PM,62.6,60.8,94,29.98,10.0,NNE,8.1,-,N/A,,Overcast,20,2013-10-17 04:08:00
11:53 PM,62.1,60.1,93,30.01,10.0,Calm,Calm,-,0.00,Rain,Light Rain,0,2013-10-17 04:53:00